sensor_id;sensor_type;location;lat;lon;timestamp;P1;durP1;ratioP1;P2;durP2;ratioP2
18999;SDS011;9633;50.980;13.850;2023-05-07T00:00:23;18.90;;;13.37;;
18999;SDS011;9633;50.980;13.850;2023-05-07T00:01:57;18.53;;;13.20;;
18999;SDS011;9633;50.980;13.850;2023-05-07T00:03:30;19.00;;;14.20;;
18999;SDS011;9633;50.980;13.850;2023-05-07T00:05:04;18.33;;;14.30;;
18999;SDS011;9633;50.980;13.850;2023-05-07T00:06:38;19.17;;;14.20;;
18999;SDS011;9633;50.980;13.850;2023-05-07T00:08:12;17.63;;;13.57;;
18999;SDS011;9633;50.980;13.850;2023-05-07T00:09:46;19.57;;;13.07;;
18999;SDS011;9633;50.980;13.850;2023-05-07T00:11:19;17.17;;;13.40;;
18999;SDS011;9633;50.980;13.850;2023-05-07T00:12:52;16.27;;;13.43;;
18999;SDS011;9633;50.980;13.850;2023-05-07T00:14:25;19.00;;;14.43;;
18999;SDS011;9633;50.980;13.850;2023-05-07T00:15:58;17.57;;;14.20;;
18999;SDS011;9633;50.980;13.850;2023-05-07T00:17:32;19.20;;;14.47;;
18999;SDS011;9633;50.980;13.850;2023-05-07T00:19:05;19.17;;;14.70;;
18999;SDS011;9633;50.980;13.850;2023-05-07T00:20:38;21.67;;;14.70;;
18999;SDS011;9633;50.980;13.850;2023-05-07T00:22:11;17.10;;;13.37;;
18999;SDS011;9633;50.980;13.850;2023-05-07T00:23:44;19.87;;;15.30;;
18999;SDS011;9633;50.980;13.850;2023-05-07T00:25:17;21.43;;;15.50;;
18999;SDS011;9633;50.980;13.850;2023-05-07T00:26:51;19.13;;;15.03;;
18999;SDS011;9633;50.980;13.850;2023-05-07T00:28:24;21.00;;;15.73;;
18999;SDS011;9633;50.980;13.850;2023-05-07T00:29:56;20.83;;;15.13;;
18999;SDS011;9633;50.980;13.850;2023-05-07T00:31:30;19.37;;;15.30;;
18999;SDS011;9633;50.980;13.850;2023-05-07T00:33:02;21.27;;;14.60;;
18999;SDS011;9633;50.980;13.850;2023-05-07T00:34:35;20.23;;;15.07;;
18999;SDS011;9633;50.980;13.850;2023-05-07T00:36:08;18.77;;;13.67;;
18999;SDS011;9633;50.980;13.850;2023-05-07T00:37:41;21.07;;;14.27;;
18999;SDS011;9633;50.980;13.850;2023-05-07T00:39:16;18.67;;;14.10;;
18999;SDS011;9633;50.980;13.850;2023-05-07T00:40:49;18.83;;;14.77;;
18999;SDS011;9633;50.980;13.850;2023-05-07T00:42:23;19.10;;;14.17;;
18999;SDS011;9633;50.980;13.850;2023-05-07T00:43:55;18.77;;;14.80;;
18999;SDS011;9633;50.980;13.850;2023-05-07T00:45:28;20.27;;;15.33;;
18999;SDS011;9633;50.980;13.850;2023-05-07T00:47:02;20.50;;;15.17;;
18999;SDS011;9633;50.980;13.850;2023-05-07T00:48:37;21.33;;;16.20;;
18999;SDS011;9633;50.980;13.850;2023-05-07T00:50:10;20.40;;;15.33;;
18999;SDS011;9633;50.980;13.850;2023-05-07T00:51:44;20.57;;;16.00;;
18999;SDS011;9633;50.980;13.850;2023-05-07T00:53:18;22.17;;;15.63;;
18999;SDS011;9633;50.980;13.850;2023-05-07T00:54:52;22.67;;;16.47;;
18999;SDS011;9633;50.980;13.850;2023-05-07T00:56:27;19.43;;;14.90;;
18999;SDS011;9633;50.980;13.850;2023-05-07T00:58:00;21.10;;;15.50;;
18999;SDS011;9633;50.980;13.850;2023-05-07T00:59:33;21.93;;;16.70;;
18999;SDS011;9633;50.980;13.850;2023-05-07T01:01:06;21.03;;;16.63;;
18999;SDS011;9633;50.980;13.850;2023-05-07T01:02:39;27.27;;;17.87;;
18999;SDS011;9633;50.980;13.850;2023-05-07T01:04:13;26.67;;;18.73;;
18999;SDS011;9633;50.980;13.850;2023-05-07T01:05:46;28.40;;;19.17;;
18999;SDS011;9633;50.980;13.850;2023-05-07T01:07:22;23.30;;;17.53;;
18999;SDS011;9633;50.980;13.850;2023-05-07T01:08:55;24.37;;;17.43;;
18999;SDS011;9633;50.980;13.850;2023-05-07T01:10:30;26.13;;;18.10;;
18999;SDS011;9633;50.980;13.850;2023-05-07T01:12:04;23.70;;;17.57;;
18999;SDS011;9633;50.980;13.850;2023-05-07T01:13:38;24.07;;;17.37;;
18999;SDS011;9633;50.980;13.850;2023-05-07T01:15:12;24.63;;;17.23;;
18999;SDS011;9633;50.980;13.850;2023-05-07T01:16:46;24.60;;;17.30;;
18999;SDS011;9633;50.980;13.850;2023-05-07T01:18:20;25.53;;;18.10;;
18999;SDS011;9633;50.980;13.850;2023-05-07T01:19:53;23.77;;;17.60;;
18999;SDS011;9633;50.980;13.850;2023-05-07T01:21:26;25.23;;;17.63;;
18999;SDS011;9633;50.980;13.850;2023-05-07T01:23:04;26.03;;;18.17;;
18999;SDS011;9633;50.980;13.850;2023-05-07T01:24:39;25.13;;;18.87;;
18999;SDS011;9633;50.980;13.850;2023-05-07T01:26:13;24.67;;;18.47;;
18999;SDS011;9633;50.980;13.850;2023-05-07T01:27:49;25.67;;;18.40;;
18999;SDS011;9633;50.980;13.850;2023-05-07T01:29:22;25.73;;;18.73;;
18999;SDS011;9633;50.980;13.850;2023-05-07T01:30:56;25.47;;;18.43;;
18999;SDS011;9633;50.980;13.850;2023-05-07T01:32:36;26.83;;;18.67;;
18999;SDS011;9633;50.980;13.850;2023-05-07T01:34:11;26.37;;;18.83;;
18999;SDS011;9633;50.980;13.850;2023-05-07T01:35:48;25.40;;;18.17;;
18999;SDS011;9633;50.980;13.850;2023-05-07T01:37:25;27.23;;;19.23;;
18999;SDS011;9633;50.980;13.850;2023-05-07T01:38:59;24.80;;;18.33;;
18999;SDS011;9633;50.980;13.850;2023-05-07T01:40:33;26.83;;;19.33;;
18999;SDS011;9633;50.980;13.850;2023-05-07T01:42:06;25.73;;;19.30;;
18999;SDS011;9633;50.980;13.850;2023-05-07T01:43:39;24.27;;;18.47;;
18999;SDS011;9633;50.980;13.850;2023-05-07T01:45:13;24.83;;;18.27;;
18999;SDS011;9633;50.980;13.850;2023-05-07T01:46:46;28.57;;;19.20;;
18999;SDS011;9633;50.980;13.850;2023-05-07T01:48:20;28.27;;;20.57;;
18999;SDS011;9633;50.980;13.850;2023-05-07T01:49:53;30.40;;;20.50;;
18999;SDS011;9633;50.980;13.850;2023-05-07T01:51:26;26.40;;;19.73;;
18999;SDS011;9633;50.980;13.850;2023-05-07T01:53:00;27.07;;;19.33;;
18999;SDS011;9633;50.980;13.850;2023-05-07T01:54:35;28.47;;;20.27;;
18999;SDS011;9633;50.980;13.850;2023-05-07T01:56:07;26.87;;;20.40;;
18999;SDS011;9633;50.980;13.850;2023-05-07T01:57:43;29.03;;;20.00;;
18999;SDS011;9633;50.980;13.850;2023-05-07T01:59:16;28.97;;;21.37;;
18999;SDS011;9633;50.980;13.850;2023-05-07T02:00:48;27.93;;;20.50;;
18999;SDS011;9633;50.980;13.850;2023-05-07T02:02:21;27.17;;;20.07;;
18999;SDS011;9633;50.980;13.850;2023-05-07T02:03:55;26.77;;;19.87;;
18999;SDS011;9633;50.980;13.850;2023-05-07T02:05:31;27.73;;;20.10;;
18999;SDS011;9633;50.980;13.850;2023-05-07T02:07:08;28.20;;;20.30;;
18999;SDS011;9633;50.980;13.850;2023-05-07T02:08:42;27.90;;;20.57;;
18999;SDS011;9633;50.980;13.850;2023-05-07T02:10:17;27.13;;;19.87;;
18999;SDS011;9633;50.980;13.850;2023-05-07T02:11:50;28.50;;;20.17;;
18999;SDS011;9633;50.980;13.850;2023-05-07T02:13:25;26.77;;;20.07;;
18999;SDS011;9633;50.980;13.850;2023-05-07T02:14:58;26.97;;;19.77;;
18999;SDS011;9633;50.980;13.850;2023-05-07T02:16:31;27.17;;;20.23;;
18999;SDS011;9633;50.980;13.850;2023-05-07T02:18:05;27.60;;;20.80;;
18999;SDS011;9633;50.980;13.850;2023-05-07T02:19:40;29.17;;;21.77;;
18999;SDS011;9633;50.980;13.850;2023-05-07T02:21:13;27.47;;;20.13;;
18999;SDS011;9633;50.980;13.850;2023-05-07T02:22:46;26.77;;;20.40;;
18999;SDS011;9633;50.980;13.850;2023-05-07T02:24:20;28.17;;;20.37;;
18999;SDS011;9633;50.980;13.850;2023-05-07T02:25:54;28.47;;;21.17;;
18999;SDS011;9633;50.980;13.850;2023-05-07T02:27:26;28.53;;;20.80;;
18999;SDS011;9633;50.980;13.850;2023-05-07T02:28:59;28.87;;;20.53;;
18999;SDS011;9633;50.980;13.850;2023-05-07T02:30:31;26.37;;;20.07;;
18999;SDS011;9633;50.980;13.850;2023-05-07T02:32:05;28.13;;;21.03;;
18999;SDS011;9633;50.980;13.850;2023-05-07T02:33:38;28.07;;;21.07;;
18999;SDS011;9633;50.980;13.850;2023-05-07T02:35:13;27.47;;;20.73;;
18999;SDS011;9633;50.980;13.850;2023-05-07T02:36:46;28.30;;;20.47;;
18999;SDS011;9633;50.980;13.850;2023-05-07T02:38:23;27.20;;;20.27;;
18999;SDS011;9633;50.980;13.850;2023-05-07T02:39:55;27.03;;;19.83;;
18999;SDS011;9633;50.980;13.850;2023-05-07T02:41:30;26.87;;;20.17;;
18999;SDS011;9633;50.980;13.850;2023-05-07T02:43:03;26.03;;;19.87;;
18999;SDS011;9633;50.980;13.850;2023-05-07T02:44:36;27.27;;;19.57;;
18999;SDS011;9633;50.980;13.850;2023-05-07T02:46:10;25.77;;;19.47;;
18999;SDS011;9633;50.980;13.850;2023-05-07T02:47:46;28.70;;;21.33;;
18999;SDS011;9633;50.980;13.850;2023-05-07T02:49:19;26.50;;;19.53;;
18999;SDS011;9633;50.980;13.850;2023-05-07T02:50:52;28.40;;;20.80;;
18999;SDS011;9633;50.980;13.850;2023-05-07T02:52:24;25.20;;;18.87;;
18999;SDS011;9633;50.980;13.850;2023-05-07T02:53:58;23.57;;;18.07;;
18999;SDS011;9633;50.980;13.850;2023-05-07T02:55:33;24.30;;;17.93;;
18999;SDS011;9633;50.980;13.850;2023-05-07T02:57:07;23.33;;;17.27;;
18999;SDS011;9633;50.980;13.850;2023-05-07T02:58:40;21.83;;;17.30;;
18999;SDS011;9633;50.980;13.850;2023-05-07T03:00:15;23.57;;;17.60;;
18999;SDS011;9633;50.980;13.850;2023-05-07T03:02:05;23.93;;;17.77;;
18999;SDS011;9633;50.980;13.850;2023-05-07T03:03:38;23.30;;;17.80;;
18999;SDS011;9633;50.980;13.850;2023-05-07T03:05:12;25.03;;;17.50;;
18999;SDS011;9633;50.980;13.850;2023-05-07T03:06:45;21.20;;;16.90;;
18999;SDS011;9633;50.980;13.850;2023-05-07T03:08:18;21.87;;;16.27;;
18999;SDS011;9633;50.980;13.850;2023-05-07T03:09:51;21.90;;;15.07;;
18999;SDS011;9633;50.980;13.850;2023-05-07T03:11:25;19.27;;;13.83;;
18999;SDS011;9633;50.980;13.850;2023-05-07T03:13:00;18.13;;;13.70;;
18999;SDS011;9633;50.980;13.850;2023-05-07T03:14:33;18.23;;;13.73;;
18999;SDS011;9633;50.980;13.850;2023-05-07T03:16:06;14.70;;;11.90;;
18999;SDS011;9633;50.980;13.850;2023-05-07T03:17:39;15.37;;;11.60;;
18999;SDS011;9633;50.980;13.850;2023-05-07T03:19:12;12.17;;;10.33;;
18999;SDS011;9633;50.980;13.850;2023-05-07T03:20:45;12.40;;;9.83;;
18999;SDS011;9633;50.980;13.850;2023-05-07T03:22:20;14.07;;;10.40;;
18999;SDS011;9633;50.980;13.850;2023-05-07T03:23:53;11.63;;;9.80;;
18999;SDS011;9633;50.980;13.850;2023-05-07T03:25:26;12.97;;;9.87;;
18999;SDS011;9633;50.980;13.850;2023-05-07T03:26:58;12.33;;;9.83;;
18999;SDS011;9633;50.980;13.850;2023-05-07T03:28:34;13.23;;;10.50;;
18999;SDS011;9633;50.980;13.850;2023-05-07T03:30:10;13.27;;;10.03;;
18999;SDS011;9633;50.980;13.850;2023-05-07T03:31:44;11.53;;;9.80;;
18999;SDS011;9633;50.980;13.850;2023-05-07T03:33:17;12.83;;;10.47;;
18999;SDS011;9633;50.980;13.850;2023-05-07T03:34:50;11.73;;;9.63;;
18999;SDS011;9633;50.980;13.850;2023-05-07T03:36:23;12.40;;;10.30;;
18999;SDS011;9633;50.980;13.850;2023-05-07T03:37:58;12.93;;;10.33;;
18999;SDS011;9633;50.980;13.850;2023-05-07T03:39:35;12.00;;;9.93;;
18999;SDS011;9633;50.980;13.850;2023-05-07T03:41:07;12.80;;;10.27;;
18999;SDS011;9633;50.980;13.850;2023-05-07T03:42:40;12.17;;;9.97;;
18999;SDS011;9633;50.980;13.850;2023-05-07T03:44:16;14.57;;;10.83;;
18999;SDS011;9633;50.980;13.850;2023-05-07T03:45:49;12.20;;;10.43;;
18999;SDS011;9633;50.980;13.850;2023-05-07T03:47:27;14.10;;;10.63;;
18999;SDS011;9633;50.980;13.850;2023-05-07T03:49:00;14.77;;;11.33;;
18999;SDS011;9633;50.980;13.850;2023-05-07T03:50:33;16.87;;;12.83;;
18999;SDS011;9633;50.980;13.850;2023-05-07T03:52:07;17.23;;;13.03;;
18999;SDS011;9633;50.980;13.850;2023-05-07T03:53:40;18.97;;;14.07;;
18999;SDS011;9633;50.980;13.850;2023-05-07T03:55:13;17.97;;;13.50;;
18999;SDS011;9633;50.980;13.850;2023-05-07T03:56:52;19.00;;;13.73;;
18999;SDS011;9633;50.980;13.850;2023-05-07T03:58:24;19.53;;;14.43;;
18999;SDS011;9633;50.980;13.850;2023-05-07T04:00:03;21.87;;;14.83;;
18999;SDS011;9633;50.980;13.850;2023-05-07T04:01:50;20.03;;;14.47;;
18999;SDS011;9633;50.980;13.850;2023-05-07T04:03:26;21.07;;;15.43;;
18999;SDS011;9633;50.980;13.850;2023-05-07T04:05:02;21.37;;;15.20;;
18999;SDS011;9633;50.980;13.850;2023-05-07T04:06:36;22.00;;;15.50;;
18999;SDS011;9633;50.980;13.850;2023-05-07T04:08:09;23.60;;;16.47;;
18999;SDS011;9633;50.980;13.850;2023-05-07T04:09:45;26.03;;;16.07;;
18999;SDS011;9633;50.980;13.850;2023-05-07T04:11:18;21.90;;;16.10;;
18999;SDS011;9633;50.980;13.850;2023-05-07T04:12:51;23.43;;;16.03;;
18999;SDS011;9633;50.980;13.850;2023-05-07T04:14:26;23.13;;;16.13;;
18999;SDS011;9633;50.980;13.850;2023-05-07T04:16:01;24.83;;;16.57;;
18999;SDS011;9633;50.980;13.850;2023-05-07T04:17:34;22.97;;;15.73;;
18999;SDS011;9633;50.980;13.850;2023-05-07T04:19:07;23.33;;;15.97;;
18999;SDS011;9633;50.980;13.850;2023-05-07T04:20:41;23.73;;;16.37;;
18999;SDS011;9633;50.980;13.850;2023-05-07T04:22:16;22.73;;;16.07;;
18999;SDS011;9633;50.980;13.850;2023-05-07T04:23:50;24.57;;;16.10;;
18999;SDS011;9633;50.980;13.850;2023-05-07T04:25:23;24.27;;;17.17;;
18999;SDS011;9633;50.980;13.850;2023-05-07T04:27:02;24.07;;;15.97;;
18999;SDS011;9633;50.980;13.850;2023-05-07T04:28:35;26.83;;;17.33;;
18999;SDS011;9633;50.980;13.850;2023-05-07T04:30:08;25.03;;;17.20;;
18999;SDS011;9633;50.980;13.850;2023-05-07T04:31:44;25.53;;;17.00;;
18999;SDS011;9633;50.980;13.850;2023-05-07T04:33:18;24.90;;;16.70;;
18999;SDS011;9633;50.980;13.850;2023-05-07T04:34:53;25.53;;;17.57;;
18999;SDS011;9633;50.980;13.850;2023-05-07T04:36:26;27.90;;;18.30;;
18999;SDS011;9633;50.980;13.850;2023-05-07T04:38:04;27.03;;;17.83;;
18999;SDS011;9633;50.980;13.850;2023-05-07T04:39:37;23.00;;;17.03;;
18999;SDS011;9633;50.980;13.850;2023-05-07T04:41:12;24.93;;;17.13;;
18999;SDS011;9633;50.980;13.850;2023-05-07T04:42:46;24.83;;;16.73;;
18999;SDS011;9633;50.980;13.850;2023-05-07T04:44:20;23.57;;;16.47;;
18999;SDS011;9633;50.980;13.850;2023-05-07T04:45:53;23.60;;;16.13;;
18999;SDS011;9633;50.980;13.850;2023-05-07T04:47:30;23.83;;;16.40;;
18999;SDS011;9633;50.980;13.850;2023-05-07T04:49:04;19.57;;;14.77;;
18999;SDS011;9633;50.980;13.850;2023-05-07T04:50:38;21.80;;;14.97;;
18999;SDS011;9633;50.980;13.850;2023-05-07T04:52:12;20.47;;;14.33;;
18999;SDS011;9633;50.980;13.850;2023-05-07T04:53:46;20.90;;;15.37;;
18999;SDS011;9633;50.980;13.850;2023-05-07T04:55:20;21.60;;;14.80;;
18999;SDS011;9633;50.980;13.850;2023-05-07T04:56:53;22.57;;;14.70;;
18999;SDS011;9633;50.980;13.850;2023-05-07T04:58:26;21.93;;;15.17;;
18999;SDS011;9633;50.980;13.850;2023-05-07T04:59:58;20.33;;;15.13;;
18999;SDS011;9633;50.980;13.850;2023-05-07T05:01:34;21.20;;;14.83;;
18999;SDS011;9633;50.980;13.850;2023-05-07T05:03:12;21.23;;;14.30;;
18999;SDS011;9633;50.980;13.850;2023-05-07T05:04:44;20.83;;;15.30;;
18999;SDS011;9633;50.980;13.850;2023-05-07T05:06:17;21.40;;;14.60;;
18999;SDS011;9633;50.980;13.850;2023-05-07T05:07:51;22.57;;;15.43;;
18999;SDS011;9633;50.980;13.850;2023-05-07T05:09:23;22.63;;;15.70;;
18999;SDS011;9633;50.980;13.850;2023-05-07T05:10:57;23.53;;;15.90;;
18999;SDS011;9633;50.980;13.850;2023-05-07T05:12:30;21.50;;;15.37;;
18999;SDS011;9633;50.980;13.850;2023-05-07T05:14:04;20.60;;;14.40;;
18999;SDS011;9633;50.980;13.850;2023-05-07T05:15:37;20.60;;;15.03;;
18999;SDS011;9633;50.980;13.850;2023-05-07T05:17:10;20.30;;;14.30;;
18999;SDS011;9633;50.980;13.850;2023-05-07T05:18:44;20.30;;;13.40;;
18999;SDS011;9633;50.980;13.850;2023-05-07T05:20:21;18.63;;;13.40;;
18999;SDS011;9633;50.980;13.850;2023-05-07T05:21:54;17.53;;;13.60;;
18999;SDS011;9633;50.980;13.850;2023-05-07T05:23:27;17.07;;;13.10;;
18999;SDS011;9633;50.980;13.850;2023-05-07T05:25:00;17.50;;;12.97;;
18999;SDS011;9633;50.980;13.850;2023-05-07T05:26:34;17.33;;;12.47;;
18999;SDS011;9633;50.980;13.850;2023-05-07T05:28:07;16.97;;;12.27;;
18999;SDS011;9633;50.980;13.850;2023-05-07T05:29:40;14.77;;;11.90;;
18999;SDS011;9633;50.980;13.850;2023-05-07T05:31:14;16.17;;;12.37;;
18999;SDS011;9633;50.980;13.850;2023-05-07T05:32:47;16.40;;;12.27;;
18999;SDS011;9633;50.980;13.850;2023-05-07T05:34:21;16.50;;;12.57;;
18999;SDS011;9633;50.980;13.850;2023-05-07T05:35:55;17.37;;;11.67;;
18999;SDS011;9633;50.980;13.850;2023-05-07T05:37:28;18.20;;;12.87;;
18999;SDS011;9633;50.980;13.850;2023-05-07T05:39:02;19.73;;;14.20;;
18999;SDS011;9633;50.980;13.850;2023-05-07T05:40:37;15.67;;;12.03;;
18999;SDS011;9633;50.980;13.850;2023-05-07T05:42:10;16.47;;;11.73;;
18999;SDS011;9633;50.980;13.850;2023-05-07T05:43:43;16.93;;;11.83;;
18999;SDS011;9633;50.980;13.850;2023-05-07T05:45:16;13.07;;;9.57;;
18999;SDS011;9633;50.980;13.850;2023-05-07T05:46:50;13.90;;;9.80;;
18999;SDS011;9633;50.980;13.850;2023-05-07T05:48:23;13.67;;;10.03;;
18999;SDS011;9633;50.980;13.850;2023-05-07T05:49:58;13.93;;;10.27;;
18999;SDS011;9633;50.980;13.850;2023-05-07T05:51:31;14.20;;;10.07;;
18999;SDS011;9633;50.980;13.850;2023-05-07T05:53:04;12.73;;;10.23;;
18999;SDS011;9633;50.980;13.850;2023-05-07T05:54:37;14.17;;;10.73;;
18999;SDS011;9633;50.980;13.850;2023-05-07T05:56:11;13.87;;;10.47;;
18999;SDS011;9633;50.980;13.850;2023-05-07T05:57:45;13.53;;;10.20;;
18999;SDS011;9633;50.980;13.850;2023-05-07T05:59:19;17.43;;;11.43;;
18999;SDS011;9633;50.980;13.850;2023-05-07T06:00:52;15.37;;;11.53;;
18999;SDS011;9633;50.980;13.850;2023-05-07T06:02:28;15.07;;;10.87;;
18999;SDS011;9633;50.980;13.850;2023-05-07T06:04:02;16.10;;;11.20;;
18999;SDS011;9633;50.980;13.850;2023-05-07T06:05:37;14.33;;;10.93;;
18999;SDS011;9633;50.980;13.850;2023-05-07T06:07:09;15.03;;;10.47;;
18999;SDS011;9633;50.980;13.850;2023-05-07T06:08:42;14.47;;;10.23;;
18999;SDS011;9633;50.980;13.850;2023-05-07T06:10:19;13.10;;;10.10;;
18999;SDS011;9633;50.980;13.850;2023-05-07T06:11:53;12.83;;;10.00;;
18999;SDS011;9633;50.980;13.850;2023-05-07T06:13:28;12.57;;;9.93;;
18999;SDS011;9633;50.980;13.850;2023-05-07T06:15:01;12.80;;;9.57;;
18999;SDS011;9633;50.980;13.850;2023-05-07T06:16:35;13.13;;;9.60;;
18999;SDS011;9633;50.980;13.850;2023-05-07T06:18:10;12.27;;;9.73;;
18999;SDS011;9633;50.980;13.850;2023-05-07T06:19:44;11.10;;;8.43;;
18999;SDS011;9633;50.980;13.850;2023-05-07T06:21:21;11.17;;;7.93;;
18999;SDS011;9633;50.980;13.850;2023-05-07T06:22:54;10.60;;;7.53;;
18999;SDS011;9633;50.980;13.850;2023-05-07T06:24:28;9.73;;;7.50;;
18999;SDS011;9633;50.980;13.850;2023-05-07T06:26:01;9.43;;;7.40;;
18999;SDS011;9633;50.980;13.850;2023-05-07T06:27:38;8.60;;;6.60;;
18999;SDS011;9633;50.980;13.850;2023-05-07T06:29:12;12.63;;;9.33;;
18999;SDS011;9633;50.980;13.850;2023-05-07T06:30:46;10.83;;;8.77;;
18999;SDS011;9633;50.980;13.850;2023-05-07T06:32:21;25.03;;;18.40;;
18999;SDS011;9633;50.980;13.850;2023-05-07T06:33:56;10.40;;;7.67;;
18999;SDS011;9633;50.980;13.850;2023-05-07T06:35:35;9.93;;;7.17;;
18999;SDS011;9633;50.980;13.850;2023-05-07T06:37:09;8.67;;;7.23;;
18999;SDS011;9633;50.980;13.850;2023-05-07T06:38:55;8.80;;;6.73;;
18999;SDS011;9633;50.980;13.850;2023-05-07T06:40:28;7.80;;;6.47;;
18999;SDS011;9633;50.980;13.850;2023-05-07T06:42:03;8.03;;;6.37;;
18999;SDS011;9633;50.980;13.850;2023-05-07T06:43:37;12.77;;;7.53;;
18999;SDS011;9633;50.980;13.850;2023-05-07T06:45:36;10.10;;;7.63;;
18999;SDS011;9633;50.980;13.850;2023-05-07T06:47:11;7.67;;;6.60;;
18999;SDS011;9633;50.980;13.850;2023-05-07T06:48:49;10.93;;;7.13;;
18999;SDS011;9633;50.980;13.850;2023-05-07T06:50:23;9.10;;;7.60;;
18999;SDS011;9633;50.980;13.850;2023-05-07T06:52:00;9.93;;;7.33;;
18999;SDS011;9633;50.980;13.850;2023-05-07T06:53:35;8.73;;;7.37;;
18999;SDS011;9633;50.980;13.850;2023-05-07T06:55:08;9.43;;;7.17;;
18999;SDS011;9633;50.980;13.850;2023-05-07T06:56:42;10.40;;;7.80;;
18999;SDS011;9633;50.980;13.850;2023-05-07T06:58:15;9.77;;;7.40;;
18999;SDS011;9633;50.980;13.850;2023-05-07T06:59:48;9.37;;;7.47;;
18999;SDS011;9633;50.980;13.850;2023-05-07T07:01:22;11.33;;;8.20;;
18999;SDS011;9633;50.980;13.850;2023-05-07T07:02:56;8.70;;;7.37;;
18999;SDS011;9633;50.980;13.850;2023-05-07T07:04:32;7.93;;;6.90;;
18999;SDS011;9633;50.980;13.850;2023-05-07T07:06:09;7.83;;;7.00;;
18999;SDS011;9633;50.980;13.850;2023-05-07T07:07:42;9.70;;;7.23;;
18999;SDS011;9633;50.980;13.850;2023-05-07T07:09:16;8.23;;;7.33;;
18999;SDS011;9633;50.980;13.850;2023-05-07T07:10:53;10.87;;;8.33;;
18999;SDS011;9633;50.980;13.850;2023-05-07T07:12:26;10.47;;;8.10;;
18999;SDS011;9633;50.980;13.850;2023-05-07T07:14:00;9.90;;;8.13;;
18999;SDS011;9633;50.980;13.850;2023-05-07T07:15:36;10.57;;;8.20;;
18999;SDS011;9633;50.980;13.850;2023-05-07T07:17:09;9.73;;;8.23;;
18999;SDS011;9633;50.980;13.850;2023-05-07T07:18:42;9.97;;;8.60;;
18999;SDS011;9633;50.980;13.850;2023-05-07T07:20:14;10.30;;;8.50;;
18999;SDS011;9633;50.980;13.850;2023-05-07T07:21:49;10.37;;;8.33;;
18999;SDS011;9633;50.980;13.850;2023-05-07T07:23:22;8.93;;;7.80;;
18999;SDS011;9633;50.980;13.850;2023-05-07T07:24:57;9.30;;;7.73;;
18999;SDS011;9633;50.980;13.850;2023-05-07T07:26:31;9.13;;;7.70;;
18999;SDS011;9633;50.980;13.850;2023-05-07T07:28:04;9.27;;;7.50;;
18999;SDS011;9633;50.980;13.850;2023-05-07T07:29:38;10.67;;;7.50;;
18999;SDS011;9633;50.980;13.850;2023-05-07T07:31:11;9.10;;;7.43;;
18999;SDS011;9633;50.980;13.850;2023-05-07T07:32:45;9.03;;;7.60;;
18999;SDS011;9633;50.980;13.850;2023-05-07T07:34:19;10.87;;;7.87;;
18999;SDS011;9633;50.980;13.850;2023-05-07T07:35:52;9.50;;;7.60;;
18999;SDS011;9633;50.980;13.850;2023-05-07T07:37:28;9.47;;;7.70;;
18999;SDS011;9633;50.980;13.850;2023-05-07T07:39:01;8.10;;;6.70;;
18999;SDS011;9633;50.980;13.850;2023-05-07T07:40:36;7.67;;;6.83;;
18999;SDS011;9633;50.980;13.850;2023-05-07T07:42:11;7.23;;;6.50;;
18999;SDS011;9633;50.980;13.850;2023-05-07T07:43:43;7.27;;;6.57;;
18999;SDS011;9633;50.980;13.850;2023-05-07T07:45:22;7.93;;;6.33;;
18999;SDS011;9633;50.980;13.850;2023-05-07T07:46:56;30.17;;;23.77;;
18999;SDS011;9633;50.980;13.850;2023-05-07T07:48:30;7.47;;;6.67;;
18999;SDS011;9633;50.980;13.850;2023-05-07T07:50:04;8.23;;;7.43;;
18999;SDS011;9633;50.980;13.850;2023-05-07T07:51:38;6.17;;;5.30;;
18999;SDS011;9633;50.980;13.850;2023-05-07T07:53:11;6.57;;;5.50;;
18999;SDS011;9633;50.980;13.850;2023-05-07T07:54:44;5.63;;;5.13;;
18999;SDS011;9633;50.980;13.850;2023-05-07T07:56:19;5.40;;;4.90;;
18999;SDS011;9633;50.980;13.850;2023-05-07T07:57:52;6.40;;;5.27;;
18999;SDS011;9633;50.980;13.850;2023-05-07T07:59:26;5.73;;;5.07;;
18999;SDS011;9633;50.980;13.850;2023-05-07T08:00:59;5.30;;;4.80;;
18999;SDS011;9633;50.980;13.850;2023-05-07T08:02:32;5.87;;;5.27;;
18999;SDS011;9633;50.980;13.850;2023-05-07T08:04:06;5.10;;;4.60;;
18999;SDS011;9633;50.980;13.850;2023-05-07T08:05:43;5.37;;;4.80;;
18999;SDS011;9633;50.980;13.850;2023-05-07T08:07:16;5.63;;;5.13;;
18999;SDS011;9633;50.980;13.850;2023-05-07T08:08:52;4.87;;;4.37;;
18999;SDS011;9633;50.980;13.850;2023-05-07T08:10:26;5.40;;;4.90;;
18999;SDS011;9633;50.980;13.850;2023-05-07T08:12:08;4.97;;;4.50;;
18999;SDS011;9633;50.980;13.850;2023-05-07T08:13:42;5.43;;;4.93;;
18999;SDS011;9633;50.980;13.850;2023-05-07T08:15:16;5.20;;;4.70;;
18999;SDS011;9633;50.980;13.850;2023-05-07T08:16:50;5.23;;;4.67;;
18999;SDS011;9633;50.980;13.850;2023-05-07T08:18:24;5.40;;;4.90;;
18999;SDS011;9633;50.980;13.850;2023-05-07T08:20:01;5.37;;;4.90;;
18999;SDS011;9633;50.980;13.850;2023-05-07T08:21:34;5.40;;;4.90;;
18999;SDS011;9633;50.980;13.850;2023-05-07T08:23:07;5.63;;;4.87;;
18999;SDS011;9633;50.980;13.850;2023-05-07T08:24:42;5.63;;;4.90;;
18999;SDS011;9633;50.980;13.850;2023-05-07T08:26:17;4.70;;;4.30;;
18999;SDS011;9633;50.980;13.850;2023-05-07T08:27:50;5.20;;;4.70;;
18999;SDS011;9633;50.980;13.850;2023-05-07T08:29:24;5.73;;;4.63;;
18999;SDS011;9633;50.980;13.850;2023-05-07T08:30:57;5.10;;;4.60;;
18999;SDS011;9633;50.980;13.850;2023-05-07T08:32:34;5.40;;;4.90;;
18999;SDS011;9633;50.980;13.850;2023-05-07T08:34:08;5.30;;;4.80;;
18999;SDS011;9633;50.980;13.850;2023-05-07T08:35:45;5.30;;;4.80;;
18999;SDS011;9633;50.980;13.850;2023-05-07T08:37:19;5.37;;;4.87;;
18999;SDS011;9633;50.980;13.850;2023-05-07T08:38:53;5.17;;;4.67;;
18999;SDS011;9633;50.980;13.850;2023-05-07T08:40:26;5.50;;;5.00;;
18999;SDS011;9633;50.980;13.850;2023-05-07T08:42:01;5.27;;;4.77;;
18999;SDS011;9633;50.980;13.850;2023-05-07T08:43:40;5.70;;;5.20;;
18999;SDS011;9633;50.980;13.850;2023-05-07T08:45:14;6.80;;;6.20;;
18999;SDS011;9633;50.980;13.850;2023-05-07T08:46:49;5.83;;;5.23;;
18999;SDS011;9633;50.980;13.850;2023-05-07T08:48:25;6.67;;;5.60;;
18999;SDS011;9633;50.980;13.850;2023-05-07T08:50:09;12.73;;;11.37;;
18999;SDS011;9633;50.980;13.850;2023-05-07T08:51:43;6.97;;;5.87;;
18999;SDS011;9633;50.980;13.850;2023-05-07T08:53:17;6.07;;;5.43;;
18999;SDS011;9633;50.980;13.850;2023-05-07T08:54:52;6.20;;;5.60;;
18999;SDS011;9633;50.980;13.850;2023-05-07T08:56:28;6.10;;;5.50;;
18999;SDS011;9633;50.980;13.850;2023-05-07T08:58:01;6.27;;;5.67;;
18999;SDS011;9633;50.980;13.850;2023-05-07T08:59:37;6.10;;;5.50;;
18999;SDS011;9633;50.980;13.850;2023-05-07T09:01:12;5.90;;;5.33;;
18999;SDS011;9633;50.980;13.850;2023-05-07T09:02:48;6.77;;;5.67;;
18999;SDS011;9633;50.980;13.850;2023-05-07T09:04:21;5.50;;;5.00;;
18999;SDS011;9633;50.980;13.850;2023-05-07T09:05:54;6.23;;;5.63;;
18999;SDS011;9633;50.980;13.850;2023-05-07T09:07:29;6.73;;;6.03;;
18999;SDS011;9633;50.980;13.850;2023-05-07T09:09:03;6.47;;;5.87;;
18999;SDS011;9633;50.980;13.850;2023-05-07T09:10:37;7.20;;;6.27;;
18999;SDS011;9633;50.980;13.850;2023-05-07T09:12:11;6.60;;;5.90;;
18999;SDS011;9633;50.980;13.850;2023-05-07T09:13:45;7.47;;;6.70;;
18999;SDS011;9633;50.980;13.850;2023-05-07T09:15:20;7.07;;;6.30;;